sensor_id;sensor_type;location;lat;lon;timestamp;pressure;altitude;pressure_sealevel;temperature;humidity
17950;BME280;9100;48.700;9.316;2023-02-12T00:00:15;99700.09999999999;;;6.35;100
17950;BME280;9100;48.700;9.316;2023-02-12T00:00:35;99705.2;;;6.35;100
17950;BME280;9100;48.700;9.316;2023-02-12T00:01:15;99697.5;;;6.35;100
17950;BME280;9100;48.700;9.316;2023-02-12T00:02:15;99701;;;6.34;100
17950;BME280;9100;48.700;9.316;2023-02-12T00:03:15;99701.8;;;6.34;100
17950;BME280;9100;48.700;9.316;2023-02-12T00:04:14;99713.7;;;6.34;100
17950;BME280;9100;48.700;9.316;2023-02-12T00:05:14;99708.8;;;6.31;100
17950;BME280;9100;48.700;9.316;2023-02-12T00:05:36;99708.8;;;6.31;100
17950;BME280;9100;48.700;9.316;2023-02-12T00:06:15;99707.2;;;6.3;100
17950;BME280;9100;48.700;9.316;2023-02-12T00:07:15;99703;;;6.29;100
17950;BME280;9100;48.700;9.316;2023-02-12T00:08:15;99703.9;;;6.28;100
17950;BME280;9100;48.700;9.316;2023-02-12T00:09:15;99705.7;;;6.26;100
17950;BME280;9100;48.700;9.316;2023-02-12T00:10:14;99700.7;;;6.26;100
17950;BME280;9100;48.700;9.316;2023-02-12T00:10:35;99705.7;;;6.26;100
17950;BME280;9100;48.700;9.316;2023-02-12T00:11:15;99713.4;;;6.26;100
17950;BME280;9100;48.700;9.316;2023-02-12T00:12:14;99450.8;;;4.64;100
17950;BME280;9100;48.700;9.316;2023-02-12T00:13:14;99707.4;;;6.27;100
17950;BME280;9100;48.700;9.316;2023-02-12T00:14:14;99710.7;;;6.29;100
17950;BME280;9100;48.700;9.316;2023-02-12T00:15:14;99714.09999999999;;;6.28;100
17950;BME280;9100;48.700;9.316;2023-02-12T00:15:37;99708.2;;;6.27;100
17950;BME280;9100;48.700;9.316;2023-02-12T00:16:15;99703.9;;;6.28;100
17950;BME280;9100;48.700;9.316;2023-02-12T00:17:14;99710.7;;;6.29;100
17950;BME280;9100;48.700;9.316;2023-02-12T00:18:15;99707.2;;;6.3;100
17950;BME280;9100;48.700;9.316;2023-02-12T00:19:14;99710.7;;;6.29;100
17950;BME280;9100;48.700;9.316;2023-02-12T00:20:14;99706.4;;;6.29;100
17950;BME280;9100;48.700;9.316;2023-02-12T00:20:35;99706.5;;;6.28;100
17950;BME280;9100;48.700;9.316;2023-02-12T00:21:14;99703.8;;;6.29;100
17950;BME280;9100;48.700;9.316;2023-02-12T00:22:15;99704.8;;;6.28;100
17950;BME280;9100;48.700;9.316;2023-02-12T00:23:14;99710.7;;;6.29;100
17950;BME280;9100;48.700;9.316;2023-02-12T00:24:14;99710.79999999999;;;6.26;100
17950;BME280;9100;48.700;9.316;2023-02-12T00:25:14;99714.3;;;6.25;100
17950;BME280;9100;48.700;9.316;2023-02-12T00:25:39;99711.90000000001;;;6.23;100
17950;BME280;9100;48.700;9.316;2023-02-12T00:26:15;99720.3;;;6.24;100
17950;BME280;9100;48.700;9.316;2023-02-12T00:27:14;99715.3;;;6.22;100
17950;BME280;9100;48.700;9.316;2023-02-12T00:28:14;99713.59999999999;;;6.23;100
17950;BME280;9100;48.700;9.316;2023-02-12T00:29:14;99715.4;;;6.21;100
17950;BME280;9100;48.700;9.316;2023-02-12T00:30:15;99716.5;;;6.17;100
17950;BME280;9100;48.700;9.316;2023-02-12T00:30:35;99714.9;;;6.16;100
17950;BME280;9100;48.700;9.316;2023-02-12T00:31:15;99719.2;;;6.15;100
17950;BME280;9100;48.700;9.316;2023-02-12T00:32:14;99721.7;;;6.15;100
17950;BME280;9100;48.700;9.316;2023-02-12T00:33:14;99724.5;;;6.12;100
17950;BME280;9100;48.700;9.316;2023-02-12T00:34:14;99724.7;;;6.08;100
17950;BME280;9100;48.700;9.316;2023-02-12T00:35:15;99716.5;;;6.04;100
17950;BME280;9100;48.700;9.316;2023-02-12T00:35:35;99717.5;;;6.02;100
17950;BME280;9100;48.700;9.316;2023-02-12T00:36:15;99715.09999999999;;;6;100
17950;BME280;9100;48.700;9.316;2023-02-12T00:37:15;99713.5;;;5.99;100
17950;BME280;9100;48.700;9.316;2023-02-12T00:38:14;99716.09999999999;;;5.98;100
17950;BME280;9100;48.700;9.316;2023-02-12T00:39:14;99717.1;;;5.95;100
17950;BME280;9100;48.700;9.316;2023-02-12T00:40:14;99718.1;;;5.93;100
17950;BME280;9100;48.700;9.316;2023-02-12T00:40:35;99718.1;;;5.93;100
17950;BME280;9100;48.700;9.316;2023-02-12T00:41:14;99715.7;;;5.91;100
17950;BME280;9100;48.700;9.316;2023-02-12T00:42:14;99713.2;;;5.91;100
17950;BME280;9100;48.700;9.316;2023-02-12T00:43:15;99708.90000000001;;;5.92;100
17950;BME280;9100;48.700;9.316;2023-02-12T00:44:15;99715.8;;;5.9;100
17950;BME280;9100;48.700;9.316;2023-02-12T00:45:14;99710;;;5.88;100
17950;BME280;9100;48.700;9.316;2023-02-12T00:45:36;99704.9;;;5.88;100
17950;BME280;9100;48.700;9.316;2023-02-12T00:46:14;99707.5;;;5.88;100
17950;BME280;9100;48.700;9.316;2023-02-12T00:47:15;99713.4;;;5.87;100
17950;BME280;9100;48.700;9.316;2023-02-12T00:48:14;99712.59999999999;;;5.86;100
17950;BME280;9100;48.700;9.316;2023-02-12T00:49:15;99720.3;;;5.84;100
17950;BME280;9100;48.700;9.316;2023-02-12T00:50:15;99720.5;;;5.81;100
17950;BME280;9100;48.700;9.316;2023-02-12T00:50:36;99717.1;;;5.82;100
17950;BME280;9100;48.700;9.316;2023-02-12T00:51:15;99719.6;;;5.82;100
17950;BME280;9100;48.700;9.316;2023-02-12T00:52:15;99719.6;;;5.82;100
17950;BME280;9100;48.700;9.316;2023-02-12T00:53:15;99723;;;5.83;100
17950;BME280;9100;48.700;9.316;2023-02-12T00:54:16;99721.2;;;5.83;100
17950;BME280;9100;48.700;9.316;2023-02-12T00:55:14;99719.5;;;5.84;100
17950;BME280;9100;48.700;9.316;2023-02-12T00:55:35;99716.2;;;5.83;100
17950;BME280;9100;48.700;9.316;2023-02-12T00:56:16;99719.5;;;5.84;100
17950;BME280;9100;48.700;9.316;2023-02-12T00:57:14;99716.2;;;5.83;100
17950;BME280;9100;48.700;9.316;2023-02-12T00:58:14;99720.3;;;5.84;100
17950;BME280;9100;48.700;9.316;2023-02-12T00:59:16;99719.4;;;5.85;100
17950;BME280;9100;48.700;9.316;2023-02-12T01:00:14;99728.7;;;5.87;100
17950;BME280;9100;48.700;9.316;2023-02-12T01:00:35;99720.2;;;5.88;100
17950;BME280;9100;48.700;9.316;2023-02-12T01:01:14;99720.9;;;5.9;100
17950;BME280;9100;48.700;9.316;2023-02-12T01:02:15;99721.6;;;5.92;100
17950;BME280;9100;48.700;9.316;2023-02-12T01:03:14;99729;;;5.95;100
17950;BME280;9100;48.700;9.316;2023-02-12T01:04:15;99722.1;;;5.97;100
17950;BME280;9100;48.700;9.316;2023-02-12T01:05:14;99717.9;;;5.96;100
17950;BME280;9100;48.700;9.316;2023-02-12T01:05:35;99726.3;;;5.96;100
17950;BME280;9100;48.700;9.316;2023-02-12T01:06:15;99719.5;;;5.97;100
17950;BME280;9100;48.700;9.316;2023-02-12T01:07:14;99716.09999999999;;;5.98;100
17950;BME280;9100;48.700;9.316;2023-02-12T01:08:16;99722.79999999999;;;5.99;100
17950;BME280;9100;48.700;9.316;2023-02-12T01:09:14;99724.40000000001;;;6;100
17950;BME280;9100;48.700;9.316;2023-02-12T01:10:15;99721.90000000001;;;6;100
17950;BME280;9100;48.700;9.316;2023-02-12T01:10:35;99716.8;;;6;100
17950;BME280;9100;48.700;9.316;2023-02-12T01:11:14;99720.1;;;6.02;100
17950;BME280;9100;48.700;9.316;2023-02-12T01:12:14;99721.7;;;6.03;100
17950;BME280;9100;48.700;9.316;2023-02-12T01:13:14;99717.3;;;6.05;100
17950;BME280;9100;48.700;9.316;2023-02-12T01:14:14;99718.2;;;6.04;100
17950;BME280;9100;48.700;9.316;2023-02-12T01:15:14;99719.2;;;6.03;100
17950;BME280;9100;48.700;9.316;2023-02-12T01:15:35;99714.09999999999;;;6.03;100
17950;BME280;9100;48.700;9.316;2023-02-12T01:16:15;99714.8;;;6.05;100
17950;BME280;9100;48.700;9.316;2023-02-12T01:17:14;99719.8;;;6.06;100
17950;BME280;9100;48.700;9.316;2023-02-12T01:18:14;99723.90000000001;;;6.07;100
17950;BME280;9100;48.700;9.316;2023-02-12T01:19:14;99715.59999999999;;;6.05;100
17950;BME280;9100;48.700;9.316;2023-02-12T01:20:15;99719;;;6.06;100
17950;BME280;9100;48.700;9.316;2023-02-12T01:20:35;99717.3;;;6.05;100
17950;BME280;9100;48.700;9.316;2023-02-12T01:21:15;99722.29999999999;;;6.06;100
17950;BME280;9100;48.700;9.316;2023-02-12T01:22:14;99722.40000000001;;;6.05;100
17950;BME280;9100;48.700;9.316;2023-02-12T01:23:15;99724.90000000001;;;6.05;100
17950;BME280;9100;48.700;9.316;2023-02-12T01:24:15;99721.6;;;6.04;100
17950;BME280;9100;48.700;9.316;2023-02-12T01:25:15;99718.4;;;6.02;100
17950;BME280;9100;48.700;9.316;2023-02-12T01:25:36;99718.4;;;6.02;100
17950;BME280;9100;48.700;9.316;2023-02-12T01:26:15;99719;;;6.04;100
17950;BME280;9100;48.700;9.316;2023-02-12T01:27:15;99716.5;;;6.04;100
17950;BME280;9100;48.700;9.316;2023-02-12T01:28:15;99720.6;;;6.07;100
17950;BME280;9100;48.700;9.316;2023-02-12T01:29:14;99724;;;6.06;100
17950;BME280;9100;48.700;9.316;2023-02-12T01:30:14;99719.8;;;6.06;100
17950;BME280;9100;48.700;9.316;2023-02-12T01:30:35;99719.8;;;6.06;100
17950;BME280;9100;48.700;9.316;2023-02-12T01:31:16;99722.2;;;6.08;100
17950;BME280;9100;48.700;9.316;2023-02-12T01:32:15;99720.6;;;6.07;100
17950;BME280;9100;48.700;9.316;2023-02-12T01:33:14;99722.40000000001;;;6.05;100
17950;BME280;9100;48.700;9.316;2023-02-12T01:34:14;99718.4;;;6.02;100
17950;BME280;9100;48.700;9.316;2023-02-12T01:35:15;99720.1;;;6.02;100
17950;BME280;9100;48.700;9.316;2023-02-12T01:35:36;99726.2;;;5.99;100
17950;BME280;9100;48.700;9.316;2023-02-12T01:36:15;99721.90000000001;;;6;100
17950;BME280;9100;48.700;9.316;2023-02-12T01:37:15;99721;;;6.01;100
17950;BME280;9100;48.700;9.316;2023-02-12T01:38:15;99726.2;;;5.99;100
17950;BME280;9100;48.700;9.316;2023-02-12T01:39:15;99717.7;;;5.99;100
17950;BME280;9100;48.700;9.316;2023-02-12T01:40:15;99717.9;;;5.96;100
17950;BME280;9100;48.700;9.316;2023-02-12T01:40:35;99716.3;;;5.95;100
17950;BME280;9100;48.700;9.316;2023-02-12T01:41:16;99716.3;;;5.95;100
17950;BME280;9100;48.700;9.316;2023-02-12T01:42:16;99720.7;;;5.93;100
17950;BME280;9100;48.700;9.316;2023-02-12T01:43:15;99712.40000000001;;;5.89;100
17950;BME280;9100;48.700;9.316;2023-02-12T01:44:16;99716.7;;;5.89;100
17950;BME280;9100;48.700;9.316;2023-02-12T01:45:33;99720.2;;;5.88;100
17950;BME280;9100;48.700;9.316;2023-02-12T01:45:44;99716.7;;;5.89;100
17950;BME280;9100;48.700;9.316;2023-02-12T01:46:14;99715.09999999999;;;5.88;100
17950;BME280;9100;48.700;9.316;2023-02-12T01:47:15;99715.9;;;5.88;100
17950;BME280;9100;48.700;9.316;2023-02-12T01:48:15;99717.6;;;5.88;100
17950;BME280;9100;48.700;9.316;2023-02-12T01:49:17;99712.59999999999;;;5.86;100
17950;BME280;9100;48.700;9.316;2023-02-12T01:50:15;99717.7;;;5.84;100
17950;BME280;9100;48.700;9.316;2023-02-12T01:50:36;99719.5;;;5.84;100
17950;BME280;9100;48.700;9.316;2023-02-12T01:51:15;99719.5;;;5.84;100
17950;BME280;9100;48.700;9.316;2023-02-12T01:52:17;99720.4;;;5.83;100
17950;BME280;9100;48.700;9.316;2023-02-12T01:53:14;99717.9;;;5.83;100
17950;BME280;9100;48.700;9.316;2023-02-12T01:54:15;99711.3;;;5.8;100
17950;BME280;9100;48.700;9.316;2023-02-12T01:55:14;99715.5;;;5.8;100
17950;BME280;9100;48.700;9.316;2023-02-12T01:55:36;99714;;;5.77;100
17950;BME280;9100;48.700;9.316;2023-02-12T01:56:15;99717.3;;;5.78;100
17950;BME280;9100;48.700;9.316;2023-02-12T01:57:14;99710.79999999999;;;5.74;100
17950;BME280;9100;48.700;9.316;2023-02-12T01:58:14;99712.5;;;5.73;100
17950;BME280;9100;48.700;9.316;2023-02-12T01:59:16;99711.8;;;5.71;100
17950;BME280;9100;48.700;9.316;2023-02-12T02:00:16;99710.29999999999;;;5.69;100
17950;BME280;9100;48.700;9.316;2023-02-12T02:00:35;99712;;;5.68;100
17950;BME280;9100;48.700;9.316;2023-02-12T02:01:16;99706.2;;;5.66;100
17950;BME280;9100;48.700;9.316;2023-02-12T02:02:15;99705.5;;;5.64;100
17950;BME280;9100;48.700;9.316;2023-02-12T02:03:14;99704.8;;;5.62;100
17950;BME280;9100;48.700;9.316;2023-02-12T02:04:15;99706.6;;;5.6;100
17950;BME280;9100;48.700;9.316;2023-02-12T02:05:17;99703.4;;;5.58;100
17950;BME280;9100;48.700;9.316;2023-02-12T02:05:37;99702.59999999999;;;5.58;100
17950;BME280;9100;48.700;9.316;2023-02-12T02:06:15;99698.29999999999;;;5.58;100
17950;BME280;9100;48.700;9.316;2023-02-12T02:07:14;99698.29999999999;;;5.58;100
17950;BME280;9100;48.700;9.316;2023-02-12T02:08:14;99705;;;5.59;100
17950;BME280;9100;48.700;9.316;2023-02-12T02:09:15;99712.5;;;5.61;100
17950;BME280;9100;48.700;9.316;2023-02-12T02:10:14;99706.8;;;5.57;100
17950;BME280;9100;48.700;9.316;2023-02-12T02:10:35;99711.1;;;5.57;100
17950;BME280;9100;48.700;9.316;2023-02-12T02:11:15;99712.7;;;5.58;100
17950;BME280;9100;48.700;9.316;2023-02-12T02:12:14;99616.8;;;4.97;100
17950;BME280;9100;48.700;9.316;2023-02-12T02:13:15;99714.70000000001;;;5.54;100
17950;BME280;9100;48.700;9.316;2023-02-12T02:14:14;99711.3;;;5.54;100
17950;BME280;9100;48.700;9.316;2023-02-12T02:15:15;99708;;;5.52;100
17950;BME280;9100;48.700;9.316;2023-02-12T02:15:35;99704.8;;;5.5;100
17950;BME280;9100;48.700;9.316;2023-02-12T02:16:19;99704.8;;;5.5;100
17950;BME280;9100;48.700;9.316;2023-02-12T02:17:21;99705.6;;;5.5;100
17950;BME280;9100;48.700;9.316;2023-02-12T02:18:16;99700.5;;;5.5;100
17950;BME280;9100;48.700;9.316;2023-02-12T02:19:18;99700.5;;;5.5;100
17950;BME280;9100;48.700;9.316;2023-02-12T02:20:41;99705.6;;;5.5;100
17950;BME280;9100;48.700;9.316;2023-02-12T02:21:28;99698;;;5.5;100
17950;BME280;9100;48.700;9.316;2023-02-12T02:22:16;99628.7;;;5.09;100
17950;BME280;9100;48.700;9.316;2023-02-12T02:23:25;99698.90000000001;;;5.49;100
17950;BME280;9100;48.700;9.316;2023-02-12T02:24:25;99700.5;;;5.5;100
17950;BME280;9100;48.700;9.316;2023-02-12T02:25:22;99701.4;;;5.49;100
17950;BME280;9100;48.700;9.316;2023-02-12T02:25:44;99695.5;;;5.5;100
17950;BME280;9100;48.700;9.316;2023-02-12T02:26:21;99699.59999999999;;;5.51;100
17950;BME280;9100;48.700;9.316;2023-02-12T02:27:16;99705.4;;;5.53;100
17950;BME280;9100;48.700;9.316;2023-02-12T02:28:21;99698.7;;;5.52;100
17950;BME280;9100;48.700;9.316;2023-02-12T02:29:19;99700.40000000001;;;5.52;100
17950;BME280;9100;48.700;9.316;2023-02-12T02:30:33;99700.59999999999;;;5.49;100
17950;BME280;9100;48.700;9.316;2023-02-12T02:30:37;99696.40000000001;;;5.49;100
17950;BME280;9100;48.700;9.316;2023-02-12T02:31:16;99694.6;;;5.5;100
17950;BME280;9100;48.700;9.316;2023-02-12T02:32:16;99693.8;;;5.49;100
17950;BME280;9100;48.700;9.316;2023-02-12T02:33:21;99697.29999999999;;;5.48;100
17950;BME280;9100;48.700;9.316;2023-02-12T02:34:23;99694;;;5.46;100
17950;BME280;9100;48.700;9.316;2023-02-12T02:35:17;99695.8;;;5.44;100
17950;BME280;9100;48.700;9.316;2023-02-12T02:35:36;99695.9;;;5.43;100
17950;BME280;9100;48.700;9.316;2023-02-12T02:36:17;99691.7;;;5.43;100
17950;BME280;9100;48.700;9.316;2023-02-12T02:37:16;99693.4;;;5.43;100
17950;BME280;9100;48.700;9.316;2023-02-12T02:38:17;99690;;;5.42;100
17950;BME280;9100;48.700;9.316;2023-02-12T02:39:14;99682.4;;;5.42;100
17950;BME280;9100;48.700;9.316;2023-02-12T02:40:15;99689.09999999999;;;5.43;100
17950;BME280;9100;48.700;9.316;2023-02-12T02:40:37;99689.20000000001;;;5.42;100
17950;BME280;9100;48.700;9.316;2023-02-12T02:41:15;99690.9;;;5.43;100
17950;BME280;9100;48.700;9.316;2023-02-12T02:42:15;99686.6;;;5.43;100
17950;BME280;9100;48.700;9.316;2023-02-12T02:43:15;99684.90000000001;;;5.44;100
17950;BME280;9100;48.700;9.316;2023-02-12T02:44:16;99681.4;;;5.45;100
17950;BME280;9100;48.700;9.316;2023-02-12T02:45:15;99684.1;;;5.43;100
17950;BME280;9100;48.700;9.316;2023-02-12T02:45:36;99684.79999999999;;;5.45;100
17950;BME280;9100;48.700;9.316;2023-02-12T02:46:15;99682.2;;;5.45;100
17950;BME280;9100;48.700;9.316;2023-02-12T02:47:15;99681.4;;;5.45;100
17950;BME280;9100;48.700;9.316;2023-02-12T02:48:16;99688.09999999999;;;5.46;100
17950;BME280;9100;48.700;9.316;2023-02-12T02:49:15;99686.6;;;5.43;100
17950;BME280;9100;48.700;9.316;2023-02-12T02:50:16;99687.5;;;5.42;100
17950;BME280;9100;48.700;9.316;2023-02-12T02:50:35;99677.4;;;5.42;100
17950;BME280;9100;48.700;9.316;2023-02-12T02:51:15;99679.9;;;5.42;100
17950;BME280;9100;48.700;9.316;2023-02-12T02:52:16;99677.4;;;5.42;100
17950;BME280;9100;48.700;9.316;2023-02-12T02:53:15;99686.6;;;5.43;100
17950;BME280;9100;48.700;9.316;2023-02-12T02:54:15;99685.79999999999;;;5.43;100
17950;BME280;9100;48.700;9.316;2023-02-12T02:55:15;99690;;;5.42;100
17950;BME280;9100;48.700;9.316;2023-02-12T02:55:36;99688.2;;;5.44;100
17950;BME280;9100;48.700;9.316;2023-02-12T02:56:15;99687.5;;;5.42;100
17950;BME280;9100;48.700;9.316;2023-02-12T02:57:16;99685.7;;;5.44;100
17950;BME280;9100;48.700;9.316;2023-02-12T02:58:15;99685.7;;;5.44;100
17950;BME280;9100;48.700;9.316;2023-02-12T02:59:15;99687.3;;;5.45;100
17950;BME280;9100;48.700;9.316;2023-02-12T03:00:15;99689.9;;;5.44;100
17950;BME280;9100;48.700;9.316;2023-02-12T03:00:36;99684.90000000001;;;5.44;100
17950;BME280;9100;48.700;9.316;2023-02-12T03:01:15;99686.6;;;5.43;100
17950;BME280;9100;48.700;9.316;2023-02-12T03:02:15;99685.79999999999;;;5.43;100
17950;BME280;9100;48.700;9.316;2023-02-12T03:03:15;99686.7;;;5.42;100
17950;BME280;9100;48.700;9.316;2023-02-12T03:04:16;99680.8;;;5.41;100
17950;BME280;9100;48.700;9.316;2023-02-12T03:05:16;99675.7;;;5.41;100
17950;BME280;9100;48.700;9.316;2023-02-12T03:05:36;99685;;;5.42;100
17950;BME280;9100;48.700;9.316;2023-02-12T03:06:17;99679;;;5.43;100
17950;BME280;9100;48.700;9.316;2023-02-12T03:07:15;99678.2;;;5.43;100
17950;BME280;9100;48.700;9.316;2023-02-12T03:08:16;99684.1;;;5.43;100
17950;BME280;9100;48.700;9.316;2023-02-12T03:09:15;99680.7;;;5.43;100
17950;BME280;9100;48.700;9.316;2023-02-12T03:10:15;99683.3;;;5.41;100
17950;BME280;9100;48.700;9.316;2023-02-12T03:10:37;99683.3;;;5.41;100
17950;BME280;9100;48.700;9.316;2023-02-12T03:11:16;99686.7;;;5.42;100
17950;BME280;9100;48.700;9.316;2023-02-12T03:12:15;99688.3;;;5.43;100
17950;BME280;9100;48.700;9.316;2023-02-12T03:13:15;99685.7;;;5.44;100
17950;BME280;9100;48.700;9.316;2023-02-12T03:14:16;99687.3;;;5.45;100
17950;BME280;9100;48.700;9.316;2023-02-12T03:15:17;99689.8;;;5.47;100
17950;BME280;9100;48.700;9.316;2023-02-12T03:15:36;99690.5;;;5.47;100
17950;BME280;9100;48.700;9.316;2023-02-12T03:16:16;99688.8;;;5.49;100
17950;BME280;9100;48.700;9.316;2023-02-12T03:17:15;99694.5;;;5.51;100
17950;BME280;9100;48.700;9.316;2023-02-12T03:18:16;99692.7;;;5.53;100
17950;BME280;9100;48.700;9.316;2023-02-12T03:19:16;99689.3;;;5.54;100
17950;BME280;9100;48.700;9.316;2023-02-12T03:20:16;99693.6;;;5.52;100
17950;BME280;9100;48.700;9.316;2023-02-12T03:20:35;99693.6;;;5.52;100
17950;BME280;9100;48.700;9.316;2023-02-12T03:21:16;99690.3;;;5.52;100
17950;BME280;9100;48.700;9.316;2023-02-12T03:22:16;99695.5;;;5.5;100
17950;BME280;9100;48.700;9.316;2023-02-12T03:23:16;99691.3;;;5.49;100
17950;BME280;9100;48.700;9.316;2023-02-12T03:24:15;99696.40000000001;;;5.48;100
17950;BME280;9100;48.700;9.316;2023-02-12T03:25:15;99698.2;;;5.47;100
17950;BME280;9100;48.700;9.316;2023-02-12T03:25:36;99697.29999999999;;;5.48;100
17950;BME280;9100;48.700;9.316;2023-02-12T03:26:16;99697.29999999999;;;5.48;100
17950;BME280;9100;48.700;9.316;2023-02-12T03:27:16;99705.6;;;5.5;100
17950;BME280;9100;48.700;9.316;2023-02-12T03:28:15;99702.09999999999;;;5.51;100
17950;BME280;9100;48.700;9.316;2023-02-12T03:29:14;99702.9;;;5.53;100
17950;BME280;9100;48.700;9.316;2023-02-12T03:30:14;99697.79999999999;;;5.53;100
17950;BME280;9100;48.700;9.316;2023-02-12T03:30:38;99700.3;;;5.53;100
17950;BME280;9100;48.700;9.316;2023-02-12T03:31:17;99698.7;;;5.52;100
17950;BME280;9100;48.700;9.316;2023-02-12T03:32:21;99698.7;;;5.52;100
17950;BME280;9100;48.700;9.316;2023-02-12T03:33:16;99703.8;;;5.52;100
17950;BME280;9100;48.700;9.316;2023-02-12T03:34:16;99697.79999999999;;;5.53;100
17950;BME280;9100;48.700;9.316;2023-02-12T03:35:15;99695.5;;;5.5;100
17950;BME280;9100;48.700;9.316;2023-02-12T03:35:37;99704.7;;;5.51;100
17950;BME280;9100;48.700;9.316;2023-02-12T03:36:17;99696.3;;;5.51;100
17950;BME280;9100;48.700;9.316;2023-02-12T03:37:16;99697.1;;;5.51;100
17950;BME280;9100;48.700;9.316;2023-02-12T03:38:15;99690.4;;;5.5;100
17950;BME280;9100;48.700;9.316;2023-02-12T03:39:15;99566;;;4.71;100
17950;BME280;9100;48.700;9.316;2023-02-12T03:40:16;99693.7;;;5.51;100
17950;BME280;9100;48.700;9.316;2023-02-12T03:40:37;99698.7;;;5.52;100
17950;BME280;9100;48.700;9.316;2023-02-12T03:41:17;99694.4;;;5.53;100
17950;BME280;9100;48.700;9.316;2023-02-12T03:42:15;99694.4;;;5.53;100
17950;BME280;9100;48.700;9.316;2023-02-12T03:43:17;99703.8;;;5.52;100
17950;BME280;9100;48.700;9.316;2023-02-12T03:44:19;99697.1;;;5.51;100
17950;BME280;9100;48.700;9.316;2023-02-12T03:45:17;99691.3;;;5.49;100
17950;BME280;9100;48.700;9.316;2023-02-12T03:45:37;99694.6;;;5.5;100
17950;BME280;9100;48.700;9.316;2023-02-12T03:46:16;99692;;;5.51;100
17950;BME280;9100;48.700;9.316;2023-02-12T03:47:16;99696.2;;;5.52;100
17950;BME280;9100;48.700;9.316;2023-02-12T03:48:17;99693.6;;;5.52;100
17950;BME280;9100;48.700;9.316;2023-02-12T03:49:16;99696.3;;;5.51;100
17950;BME280;9100;48.700;9.316;2023-02-12T03:50:16;99696.40000000001;;;5.49;100
17950;BME280;9100;48.700;9.316;2023-02-12T03:50:36;99699.8;;;5.48;100
17950;BME280;9100;48.700;9.316;2023-02-12T03:51:16;99696.40000000001;;;5.49;100
17950;BME280;9100;48.700;9.316;2023-02-12T03:52:14;99698.90000000001;;;5.49;100
17950;BME280;9100;48.700;9.316;2023-02-12T03:53:14;99697.2;;;5.5;100
17950;BME280;9100;48.700;9.316;2023-02-12T03:54:15;99703.09999999999;;;5.5;100
17950;BME280;9100;48.700;9.316;2023-02-12T03:55:15;99704;;;5.49;100
17950;BME280;9100;48.700;9.316;2023-02-12T03:55:35;99704.9;;;5.48;100
17950;BME280;9100;48.700;9.316;2023-02-12T03:56:15;99701.4;;;5.49;100
17950;BME280;9100;48.700;9.316;2023-02-12T03:57:15;99704.9;;;5.48;100
17950;BME280;9100;48.700;9.316;2023-02-12T03:58:20;99699.8;;;5.48;100
17950;BME280;9100;48.700;9.316;2023-02-12T03:59:14;99697.40000000001;;;5.47;100
17950;BME280;9100;48.700;9.316;2023-02-12T04:00:17;99702.5;;;5.45;100
17950;BME280;9100;48.700;9.316;2023-02-12T04:00:36;99700.09999999999;;;5.44;100
17950;BME280;9100;48.700;9.316;2023-02-12T04:01:15;99699.2;;;5.45;100
17950;BME280;9100;48.700;9.316;2023-02-12T04:02:15;99700.9;;;5.44;100
17950;BME280;9100;48.700;9.316;2023-02-12T04:03:15;99709.40000000001;;;5.43;100
17950;BME280;9100;48.700;9.316;2023-02-12T04:04:15;99701.09999999999;;;5.41;100
17950;BME280;9100;48.700;9.316;2023-02-12T04:05:16;99699.5;;;5.4;100
17950;BME280;9100;48.700;9.316;2023-02-12T04:05:36;99708.8;;;5.4;100
17950;BME280;9100;48.700;9.316;2023-02-12T04:06:18;99705.5;;;5.39;100
17950;BME280;9100;48.700;9.316;2023-02-12T04:07:16;99706.4;;;5.38;100
17950;BME280;9100;48.700;9.316;2023-02-12T04:08:15;99713.09999999999;;;5.39;100
17950;BME280;9100;48.700;9.316;2023-02-12T04:09:15;99714.9;;;5.37;100
17950;BME280;9100;48.700;9.316;2023-02-12T04:10:15;99710.79999999999;;;5.34;100
17950;BME280;9100;48.700;9.316;2023-02-12T04:10:37;99713.4;;;5.34;100
17950;BME280;9100;48.700;9.316;2023-02-12T04:11:19;99712.5;;;5.35;100
17950;BME280;9100;48.700;9.316;2023-02-12T04:12:20;99711.6;;;5.35;100
17950;BME280;9100;48.700;9.316;2023-02-12T04:13:15;99716;;;5.33;100
17950;BME280;9100;48.700;9.316;2023-02-12T04:14:17;99708.4;;;5.33;100
17950;BME280;9100;48.700;9.316;2023-02-12T04:15:20;99714.4;;;5.32;100
17950;BME280;9100;48.700;9.316;2023-02-12T04:15:45;99714.5;;;5.3;100
17950;BME280;9100;48.700;9.316;2023-02-12T04:16:16;99714.3;;;5.33;100
17950;BME280;9100;48.700;9.316;2023-02-12T04:17:18;99711.7;;;5.33;100
17950;BME280;9100;48.700;9.316;2023-02-12T04:18:16;99720.1;;;5.34;100
17950;BME280;9100;48.700;9.316;2023-02-12T04:19:16;99720.1;;;5.34;100
17950;BME280;9100;48.700;9.316;2023-02-12T04:20:15;99718.5;;;5.33;100
17950;BME280;9100;48.700;9.316;2023-02-12T04:20:40;99715.09999999999;;;5.34;100
17950;BME280;9100;48.700;9.316;2023-02-12T04:21:17;99710;;;5.34;100
17950;BME280;9100;48.700;9.316;2023-02-12T04:22:17;99711.7;;;5.33;100
17950;BME280;9100;48.700;9.316;2023-02-12T04:23:16;99716.7;;;5.35;100
17950;BME280;9100;48.700;9.316;2023-02-12T04:24:16;99712.5;;;5.34;100
17950;BME280;9100;48.700;9.316;2023-02-12T04:25:17;99721;;;5.33;100
17950;BME280;9100;48.700;9.316;2023-02-12T04:25:40;99720.1;;;5.34;100
17950;BME280;9100;48.700;9.316;2023-02-12T04:26:17;99720.1;;;5.34;100
17950;BME280;9100;48.700;9.316;2023-02-12T04:27:15;99718.5;;;5.33;100
17950;BME280;9100;48.700;9.316;2023-02-12T04:28:16;99722.7;;;5.34;100
17950;BME280;9100;48.700;9.316;2023-02-12T04:29:16;99719.3;;;5.33;100
17950;BME280;9100;48.700;9.316;2023-02-12T04:30:17;99721;;;5.34;100
17950;BME280;9100;48.700;9.316;2023-02-12T04:30:36;99723.5;;;5.34;100
17950;BME280;9100;48.700;9.316;2023-02-12T04:31:17;99725.9;;;5.36;100
17950;BME280;9100;48.700;9.316;2023-02-12T04:32:15;99724.2;;;5.36;100
17950;BME280;9100;48.700;9.316;2023-02-12T04:33:15;99724.2;;;5.36;100
17950;BME280;9100;48.700;9.316;2023-02-12T04:34:16;99716.7;;;5.35;100
17950;BME280;9100;48.700;9.316;2023-02-12T04:35:16;99717.6;;;5.34;100
17950;BME280;9100;48.700;9.316;2023-02-12T04:35:35;99720.1;;;5.34;100
17950;BME280;9100;48.700;9.316;2023-02-12T04:36:15;99720.1;;;5.34;100
17950;BME280;9100;48.700;9.316;2023-02-12T04:37:15;99716.8;;;5.33;100